ePrivacy and GPDR Cookie Consent by Cookie Consent
EmailTwitter


Observations de surface / France / LFBO (07630)

Régions: Québec | Canada | États-Unis | Europe | France | UK | Ailleurs
Station
Affichage
Infos & localisation pour LFBO (07630) | Aide pour décoder les METARs

Observations prises le 2022-05-18 à 09H30 UTC à TOULOUSE/BLAGNAC, FR (LFBO)

Etat du ciel: quelques nuages.

Température: 27.0 Celsius

Point de rosée: 14.0 Celsius

Humidité relative: 45%

Indice Humidex 30.

Vents: Variable à 6 km/h ou 3 noeuds.

Pression au niveau moyen de la mer: 101.90 kilopascals.

Visibilité horizontale: 6.21 milles terrestres ou 9.94 kilomètres.

Observation METAR:

LFBO 180930Z AUTO VRB03KT 9999 FEW007 27/14 Q1019 NOSIG=